createdAt,value
2022-11-16T00:00:15.676Z,75.63
2022-11-16T00:03:06.045Z,75.85
2022-11-16T00:05:37.869Z,76.06
2022-11-16T00:08:09.892Z,75.74
2022-11-16T00:10:42.211Z,75.20
2022-11-16T00:13:14.162Z,75.14
2022-11-16T00:15:54.522Z,75.21
2022-11-16T00:18:26.613Z,75.56
2022-11-16T00:20:58.676Z,76.12
2022-11-16T00:23:30.870Z,76.23
2022-11-16T00:26:07.517Z,76.32
2022-11-16T00:28:39.601Z,76.38
2022-11-16T00:31:12.310Z,76.39
2022-11-16T00:33:44.528Z,76.84
2022-11-16T00:36:16.610Z,76.67
2022-11-16T00:38:48.624Z,76.57
2022-11-16T00:41:20.649Z,76.55
2022-11-16T00:43:52.461Z,76.74
2022-11-16T00:46:24.392Z,76.78
2022-11-16T00:48:56.765Z,76.80
2022-11-16T00:51:28.623Z,76.91
2022-11-16T00:54:00.478Z,76.70
2022-11-16T00:56:32.619Z,76.61
2022-11-16T00:59:04.529Z,76.71
2022-11-16T01:01:37.933Z,76.55
2022-11-16T01:04:11.340Z,76.68
2022-11-16T01:06:43.338Z,76.64
2022-11-16T01:09:15.187Z,76.61
2022-11-16T01:12:04.405Z,76.44
2022-11-16T01:14:36.259Z,76.32
2022-11-16T01:17:08.818Z,76.29
2022-11-16T01:19:40.987Z,76.51
2022-11-16T01:22:12.902Z,76.67
2022-11-16T01:24:47.013Z,76.42
2022-11-16T01:27:18.853Z,76.10
2022-11-16T01:29:50.841Z,76.18
2022-11-16T01:32:22.731Z,76.20
2022-11-16T01:34:54.737Z,76.54
2022-11-16T01:37:33.183Z,76.86
2022-11-16T01:40:05.532Z,77.08
2022-11-16T01:42:38.361Z,76.96
2022-11-16T01:45:21.104Z,76.78
2022-11-16T01:47:56.325Z,76.52
2022-11-16T01:50:32.197Z,76.38
2022-11-16T01:53:08.872Z,76.52
2022-11-16T01:55:49.930Z,76.84
2022-11-16T01:58:48.355Z,76.96
2022-11-16T02:01:24.756Z,77.13
2022-11-16T02:03:58.433Z,77.30
2022-11-16T02:06:46.294Z,77.46
2022-11-16T02:09:59.128Z,77.95
2022-11-16T02:27:02.127Z,77.93
2022-11-16T02:29:37.174Z,77.46
2022-11-16T02:32:15.109Z,77.24
2022-11-16T02:34:52.125Z,77.60
2022-11-16T02:37:27.434Z,77.70
2022-11-16T02:40:02.319Z,77.95
2022-11-16T02:42:39.193Z,78.10
2022-11-16T02:45:17.727Z,78.33
2022-11-16T02:47:51.832Z,78.53
2022-11-16T02:50:25.677Z,78.93
2022-11-16T02:52:58.376Z,78.88
2022-11-16T02:55:33.806Z,78.80
2022-11-16T02:58:10.808Z,78.78
2022-11-16T03:00:49.246Z,78.77
2022-11-16T03:03:29.617Z,78.37
2022-11-16T03:06:08.772Z,78.60
2022-11-16T03:08:44.045Z,78.75
2022-11-16T03:11:34.594Z,78.90
2022-11-16T03:14:12.148Z,79.14
2022-11-16T03:16:48.271Z,79.04
2022-11-16T03:19:24.566Z,79.49
2022-11-16T03:21:59.331Z,79.56
2022-11-16T03:24:31.624Z,79.85
2022-11-16T03:27:13.701Z,80.16
2022-11-16T03:29:53.638Z,80.07
2022-11-16T03:32:31.003Z,80.55
2022-11-16T03:35:07.917Z,80.90
2022-11-16T03:37:42.145Z,81.05
2022-11-16T03:40:16.841Z,80.99
2022-11-16T03:42:50.608Z,80.78
2022-11-16T03:45:23.404Z,80.85
2022-11-16T03:47:55.576Z,80.64
2022-11-16T03:50:28.489Z,80.62
2022-11-16T03:53:00.337Z,80.74
2022-11-16T03:55:32.371Z,80.93
2022-11-16T03:58:04.315Z,81.17
2022-11-16T04:00:39.292Z,81.08
2022-11-16T04:03:13.944Z,81.27
2022-11-16T04:06:03.674Z,81.91
2022-11-16T04:08:52.911Z,81.88
2022-11-16T04:11:42.907Z,81.79
2022-11-16T04:14:33.714Z,81.63
2022-11-16T04:17:19.668Z,81.42
2022-11-16T04:20:05.381Z,81.35
2022-11-16T04:23:04.252Z,81.60
2022-11-16T04:25:38.999Z,81.40
2022-11-16T04:28:20.117Z,81.53
2022-11-16T04:31:18.083Z,81.56
2022-11-16T04:34:29.995Z,82.10
2022-11-16T04:37:20.202Z,82.23
2022-11-16T04:39:52.940Z,82.55
2022-11-16T04:42:26.112Z,82.38
2022-11-16T04:45:15.660Z,82.21
2022-11-16T04:47:52.515Z,82.33
2022-11-16T04:50:25.272Z,82.28
2022-11-16T04:52:57.055Z,82.52
2022-11-16T04:55:28.978Z,82.88
2022-11-16T04:58:00.793Z,82.58
2022-11-16T05:00:32.627Z,82.71
2022-11-16T05:03:06.140Z,82.72
2022-11-16T05:05:38.964Z,82.83
2022-11-16T05:08:11.030Z,82.86
2022-11-16T05:10:42.832Z,82.77
2022-11-16T05:13:14.919Z,82.74
2022-11-16T05:15:48.965Z,82.57
2022-11-16T05:18:21.164Z,82.70
2022-11-16T05:21:02.407Z,82.76
2022-11-16T05:23:55.651Z,82.87
2022-11-16T05:26:29.442Z,82.81
2022-11-16T05:29:01.595Z,82.92
2022-11-16T05:31:39.128Z,83.01
2022-11-16T05:34:13.768Z,83.10
2022-11-16T05:36:45.993Z,83.09
2022-11-16T05:39:18.272Z,83.19
2022-11-16T05:41:51.293Z,83.16
2022-11-16T05:44:23.563Z,83.37
2022-11-16T05:46:56.286Z,83.51
2022-11-16T05:49:28.390Z,83.73
2022-11-16T05:52:00.494Z,83.93
2022-11-16T05:54:33.137Z,83.80
2022-11-16T05:57:05.100Z,83.97
2022-11-16T05:59:37.295Z,84.19
2022-11-16T06:02:09.768Z,84.36
2022-11-16T06:04:41.742Z,84.61
2022-11-16T06:07:13.797Z,84.65
2022-11-16T06:09:45.846Z,85.00
2022-11-16T06:12:21.370Z,85.05
2022-11-16T06:14:53.749Z,85.29
2022-11-16T06:17:26.684Z,85.34
2022-11-16T06:19:58.814Z,85.50
2022-11-16T06:22:34.190Z,85.37
2022-11-16T06:25:07.841Z,85.24
2022-11-16T06:27:42.952Z,85.41
2022-11-16T06:30:16.341Z,85.45
2022-11-16T06:32:49.350Z,85.67
2022-11-16T06:35:21.216Z,85.82
2022-11-16T06:37:53.600Z,86.06
2022-11-16T06:40:26.381Z,86.38
2022-11-16T06:42:58.867Z,86.57
2022-11-16T06:45:32.436Z,86.71
2022-11-16T06:48:05.331Z,86.80
2022-11-16T06:50:37.561Z,86.78
2022-11-16T06:53:10.605Z,86.99
2022-11-16T06:55:43.306Z,87.14
2022-11-16T06:58:15.548Z,87.05
2022-11-16T07:00:47.654Z,87.13
2022-11-16T07:03:20.351Z,87.15
2022-11-16T07:05:52.989Z,87.26
2022-11-16T07:08:26.177Z,86.88
2022-11-16T07:11:02.972Z,86.66
2022-11-16T07:13:37.850Z,86.68
2022-11-16T07:16:12.311Z,86.78
2022-11-16T07:18:48.202Z,86.58
2022-11-16T07:21:20.482Z,86.75
2022-11-16T07:23:53.017Z,86.91
2022-11-16T07:26:25.196Z,86.94
2022-11-16T07:29:09.560Z,87.12
2022-11-16T07:31:44.043Z,87.13
2022-11-16T07:34:36.269Z,86.99
2022-11-16T07:37:12.059Z,87.05
2022-11-16T07:39:45.924Z,87.17
2022-11-16T07:42:18.374Z,87.03
2022-11-16T07:44:57.123Z,86.81
2022-11-16T07:47:29.039Z,86.77
2022-11-16T07:50:00.831Z,86.78
2022-11-16T07:52:33.184Z,86.82
2022-11-16T07:55:11.181Z,87.04
2022-11-16T07:57:45.201Z,87.07
2022-11-16T08:00:21.163Z,86.94
2022-11-16T08:02:59.673Z,87.05
2022-11-16T08:05:31.620Z,87.07
2022-11-16T08:08:03.347Z,86.88
2022-11-16T08:10:36.751Z,86.95
2022-11-16T08:13:08.921Z,87.14
2022-11-16T08:15:40.824Z,87.09
2022-11-16T08:18:14.552Z,86.96
2022-11-16T08:20:46.366Z,86.86
2022-11-16T08:23:18.245Z,87.01
2022-11-16T08:25:49.993Z,87.30
2022-11-16T08:28:22.283Z,87.51
2022-11-16T08:30:54.518Z,87.43
2022-11-16T08:33:27.389Z,87.66
2022-11-16T08:36:06.192Z,87.92
2022-11-16T08:38:41.857Z,88.20
2022-11-16T08:41:14.131Z,88.33
2022-11-16T08:43:47.454Z,88.61
2022-11-16T08:46:20.318Z,88.52
2022-11-16T08:48:57.921Z,88.55
2022-11-16T08:51:29.940Z,88.60
2022-11-16T08:54:09.542Z,88.52
2022-11-16T08:56:42.747Z,88.74
2022-11-16T08:59:14.746Z,88.54
2022-11-16T09:01:51.347Z,88.38
2022-11-16T09:04:23.445Z,88.28
2022-11-16T09:06:55.464Z,88.20
2022-11-16T09:09:27.381Z,88.25
2022-11-16T09:11:59.323Z,88.08
2022-11-16T09:14:31.184Z,87.96
2022-11-16T09:17:03.247Z,87.98
2022-11-16T09:19:35.015Z,87.81
2022-11-16T09:22:07.149Z,87.95
2022-11-16T09:24:39.594Z,87.98
2022-11-16T09:27:11.516Z,87.96
2022-11-16T09:29:43.435Z,87.64
2022-11-16T09:32:15.212Z,87.86
2022-11-16T09:34:47.623Z,87.78
2022-11-16T09:37:19.391Z,87.91
2022-11-16T09:39:51.155Z,87.83
2022-11-16T09:42:34.638Z,87.86
2022-11-16T09:45:12.556Z,87.95
2022-11-16T09:47:50.178Z,87.99
2022-11-16T09:50:39.688Z,87.77
2022-11-16T09:53:23.359Z,87.77
2022-11-16T09:55:57.887Z,87.79
2022-11-16T09:58:34.386Z,87.85
2022-11-16T10:01:14.977Z,87.77
2022-11-16T10:03:50.953Z,88.02
2022-11-16T10:06:28.798Z,87.99
2022-11-16T10:09:00.735Z,87.95
2022-11-16T10:11:52.932Z,87.65
2022-11-16T10:14:52.477Z,87.74
2022-11-16T10:17:34.396Z,87.80
2022-11-16T10:20:30.294Z,87.71
2022-11-16T10:23:16.474Z,87.97
2022-11-16T10:25:53.685Z,88.12
2022-11-16T10:28:53.691Z,87.78
2022-11-16T10:31:36.178Z,87.67
2022-11-16T10:34:16.311Z,87.70
2022-11-16T10:36:48.627Z,87.56
2022-11-16T10:39:21.951Z,87.43
2022-11-16T10:41:54.213Z,87.01
2022-11-16T10:44:35.635Z,86.66
2022-11-16T10:47:13.715Z,86.51
2022-11-16T10:49:47.989Z,86.25
2022-11-16T10:52:19.872Z,86.32
2022-11-16T10:54:52.209Z,86.40
2022-11-16T10:57:26.567Z,86.53
2022-11-16T10:59:59.200Z,86.54
2022-11-16T11:02:34.932Z,86.86
2022-11-16T11:05:21.341Z,86.76
2022-11-16T11:08:04.320Z,86.67
2022-11-16T11:10:37.903Z,86.69
2022-11-16T11:13:27.459Z,86.95
2022-11-16T11:18:57.196Z,87.35
2022-11-16T11:21:29.815Z,87.20
2022-11-16T11:24:29.629Z,87.51
2022-11-16T11:27:00.220Z,87.64
2022-11-16T11:29:35.915Z,87.64
2022-11-16T11:32:16.967Z,87.86
2022-11-16T11:34:55.869Z,87.77
2022-11-16T11:37:34.066Z,87.80
2022-11-16T11:40:24.263Z,87.83
2022-11-16T11:42:59.418Z,88.02
2022-11-16T11:45:43.742Z,88.14
2022-11-16T11:48:29.072Z,88.37
2022-11-16T11:51:10.108Z,88.28
2022-11-16T11:53:53.099Z,88.38
2022-11-16T11:56:25.944Z,88.31
2022-11-16T11:58:59.388Z,88.43
2022-11-16T12:01:48.785Z,88.58
2022-11-16T12:04:47.992Z,88.84
2022-11-16T12:07:32.908Z,88.81
2022-11-16T12:10:14.446Z,89.06
2022-11-16T12:13:01.630Z,89.28
2022-11-16T12:15:49.946Z,89.16
2022-11-16T12:18:35.634Z,89.34
2022-11-16T12:21:14.495Z,89.38
2022-11-16T12:24:10.078Z,89.55
2022-11-16T12:26:56.066Z,89.65
2022-11-16T12:29:34.430Z,89.94
2022-11-16T12:32:21.977Z,90.05
2022-11-16T12:35:09.818Z,90.26
2022-11-16T12:37:49.412Z,90.40
2022-11-16T12:40:50.328Z,90.70
2022-11-16T12:43:31.093Z,90.64
2022-11-16T12:46:12.906Z,90.65
2022-11-16T12:49:10.798Z,90.91
2022-11-16T12:51:49.971Z,91.03
2022-11-16T12:55:28.373Z,90.96
2022-11-16T12:58:06.938Z,91.20
2022-11-16T13:00:51.273Z,91.35
2022-11-16T13:03:30.518Z,91.37
2022-11-16T13:06:06.544Z,91.24
2022-11-16T13:08:46.210Z,91.31
2022-11-16T13:11:23.456Z,91.46
2022-11-16T13:14:01.299Z,91.34
2022-11-16T13:16:33.888Z,91.49
2022-11-16T13:19:11.341Z,91.71
2022-11-16T13:21:54.862Z,91.79
2022-11-16T13:24:46.185Z,91.93
2022-11-16T13:27:38.159Z,91.47
2022-11-16T13:30:19.477Z,91.62
2022-11-16T13:33:04.002Z,91.59
2022-11-16T13:35:38.926Z,91.74
2022-11-16T13:38:14.192Z,91.99
2022-11-16T13:40:45.983Z,92.02
2022-11-16T13:43:22.683Z,92.03
2022-11-16T13:45:58.650Z,92.07
2022-11-16T13:48:35.929Z,92.07
2022-11-16T13:51:17.389Z,92.09
2022-11-16T13:56:52.679Z,92.09
2022-11-16T13:59:29.786Z,92.11
2022-11-16T14:02:04.198Z,92.02
2022-11-16T14:04:58.024Z,91.99
2022-11-16T14:07:40.652Z,91.98
2022-11-16T14:10:33.511Z,92.07
2022-11-16T14:13:06.353Z,92.30
2022-11-16T14:15:39.188Z,92.31
2022-11-16T14:18:38.189Z,92.44
2022-11-16T14:21:21.920Z,92.58
2022-11-16T14:24:13.919Z,92.68
2022-11-16T14:26:53.820Z,92.70
2022-11-16T14:29:49.282Z,92.88
2022-11-16T14:32:24.549Z,92.83
2022-11-16T14:34:58.169Z,92.56
2022-11-16T14:37:37.173Z,92.54
2022-11-16T14:40:18.763Z,92.51
2022-11-16T14:43:15.237Z,92.30
2022-11-16T14:45:53.356Z,91.93
2022-11-16T14:48:26.976Z,92.15
2022-11-16T14:51:09.089Z,92.25
2022-11-16T14:53:43.362Z,92.32
2022-11-16T14:56:17.241Z,92.27
2022-11-16T14:58:56.797Z,92.21
2022-11-16T15:01:30.885Z,92.36
2022-11-16T15:04:05.320Z,92.53
2022-11-16T15:06:43.293Z,92.39
2022-11-16T15:09:22.188Z,92.48
2022-11-16T15:12:12.017Z,92.25
2022-11-16T15:14:49.393Z,92.60
2022-11-16T15:17:27.265Z,92.49
2022-11-16T15:20:03.360Z,92.55
2022-11-16T15:22:42.924Z,92.41
2022-11-16T15:25:29.699Z,92.47
2022-11-16T15:28:04.146Z,92.56
2022-11-16T15:30:37.600Z,92.64
2022-11-16T15:33:17.475Z,92.63
2022-11-16T15:35:49.561Z,92.53
2022-11-16T15:38:24.175Z,92.47
2022-11-16T15:40:57.627Z,92.40
2022-11-16T15:43:35.849Z,92.45
2022-11-16T15:46:14.583Z,92.68
2022-11-16T15:48:46.864Z,92.80
2022-11-16T15:51:24.224Z,92.82
2022-11-16T15:54:12.668Z,92.82
2022-11-16T15:56:44.632Z,92.96
2022-11-16T15:59:25.012Z,92.96
2022-11-16T16:01:57.379Z,92.82
2022-11-16T16:04:30.026Z,92.73
2022-11-16T16:07:02.542Z,92.73
2022-11-16T16:09:36.926Z,92.84
2022-11-16T16:12:23.307Z,92.94
2022-11-16T16:15:15.147Z,93.20
2022-11-16T16:17:49.663Z,93.18
2022-11-16T16:20:23.973Z,93.19
2022-11-16T16:23:06.106Z,93.32
2022-11-16T16:25:38.490Z,93.44
2022-11-16T16:28:14.163Z,93.62
2022-11-16T16:30:45.918Z,93.65
2022-11-16T16:33:22.905Z,93.64
2022-11-16T16:35:54.657Z,93.77
2022-11-16T16:38:26.576Z,93.78
2022-11-16T16:41:03.587Z,93.77
2022-11-16T16:43:35.849Z,93.99
2022-11-16T16:46:08.768Z,94.02
2022-11-16T16:48:44.647Z,93.99
2022-11-16T16:51:16.827Z,94.02
2022-11-16T16:53:48.647Z,93.89
2022-11-16T16:56:20.501Z,93.88
2022-11-16T16:58:52.476Z,93.86
2022-11-16T17:01:24.498Z,93.82
2022-11-16T17:03:57.289Z,93.80
2022-11-16T17:06:30.769Z,93.85
2022-11-16T17:09:02.661Z,93.71
2022-11-16T17:11:34.424Z,93.81
2022-11-16T17:14:07.906Z,93.78
2022-11-16T17:16:39.744Z,93.77
2022-11-16T17:19:14.061Z,93.96
2022-11-16T17:21:45.931Z,93.79
2022-11-16T17:24:17.695Z,94.03
2022-11-16T17:26:50.627Z,93.68
2022-11-16T17:29:22.394Z,93.82
2022-11-16T17:31:54.118Z,93.65
2022-11-16T17:34:25.896Z,93.38
2022-11-16T17:36:57.709Z,93.54
2022-11-16T17:39:30.631Z,93.30
2022-11-16T17:42:02.524Z,93.53
2022-11-16T17:44:34.360Z,93.48
2022-11-16T17:47:07.465Z,93.46
2022-11-16T17:49:39.374Z,93.42
2022-11-16T17:52:11.247Z,93.36
2022-11-16T17:54:43.116Z,93.63
2022-11-16T17:57:14.891Z,93.78
2022-11-16T17:59:46.796Z,93.67
2022-11-16T18:02:18.558Z,93.66
2022-11-16T18:04:53.320Z,93.70
2022-11-16T18:07:25.274Z,93.41
2022-11-16T18:09:57.078Z,93.28
2022-11-16T18:12:28.794Z,93.48
2022-11-16T18:15:26.916Z,93.49
2022-11-16T18:17:52.753Z,93.64
2022-11-16T18:20:24.568Z,93.58
2022-11-16T18:22:56.345Z,93.41
2022-11-16T18:25:28.116Z,93.71
2022-11-16T18:27:59.905Z,93.67
2022-11-16T18:30:31.713Z,93.49
2022-11-16T18:33:03.486Z,93.85
2022-11-16T18:35:35.235Z,94.08
2022-11-16T18:38:08.262Z,94.16
2022-11-16T18:40:40.928Z,94.09
2022-11-16T18:43:15.845Z,93.94
2022-11-16T18:45:47.668Z,94.05
2022-11-16T18:48:19.549Z,94.27
2022-11-16T18:50:51.444Z,94.16
2022-11-16T18:53:23.253Z,94.06
2022-11-16T18:55:57.984Z,94.20
2022-11-16T19:01:24.825Z,94.20
2022-11-16T19:03:57.617Z,94.12
2022-11-16T19:06:32.341Z,94.06
2022-11-16T19:09:06.310Z,93.96
2022-11-16T19:11:38.455Z,93.90
2022-11-16T19:14:10.496Z,93.78
2022-11-16T19:16:52.644Z,93.80
2022-11-16T19:19:29.908Z,94.04
2022-11-16T19:22:01.818Z,94.14
2022-11-16T19:24:33.590Z,94.29
2022-11-16T19:27:05.377Z,94.26
2022-11-16T19:29:37.215Z,94.37
2022-11-16T19:32:09.385Z,94.37
2022-11-16T19:34:41.179Z,94.44
2022-11-16T19:37:14.018Z,94.20
2022-11-16T19:39:45.944Z,94.17
2022-11-16T19:42:17.714Z,94.19
2022-11-16T19:44:49.489Z,94.48
2022-11-16T19:47:23.156Z,94.43
2022-11-16T19:49:54.985Z,94.38
2022-11-16T19:52:26.758Z,94.65
2022-11-16T19:54:58.508Z,94.80
2022-11-16T19:57:30.355Z,94.61
2022-11-16T20:00:02.229Z,94.53
2022-11-16T20:02:38.760Z,94.46
2022-11-16T20:05:11.573Z,94.28
2022-11-16T20:07:44.724Z,94.44
2022-11-16T20:10:16.964Z,94.20
2022-11-16T20:12:49.782Z,94.20
2022-11-16T20:15:23.940Z,94.11
2022-11-16T20:17:55.782Z,94.07
2022-11-16T20:20:30.225Z,94.25
2022-11-16T20:23:02.430Z,94.25
2022-11-16T20:25:34.230Z,94.31
2022-11-16T20:28:06.069Z,94.54
2022-11-16T20:30:37.927Z,94.52
2022-11-16T20:33:09.792Z,94.58
2022-11-16T20:35:41.588Z,94.57
2022-11-16T20:38:13.370Z,94.39
2022-11-16T20:40:45.177Z,94.37
2022-11-16T20:43:17.084Z,94.34
2022-11-16T20:45:54.767Z,94.12
2022-11-16T20:48:26.601Z,94.17
2022-11-16T20:50:58.460Z,94.25
2022-11-16T20:53:30.233Z,94.16
2022-11-16T20:56:03.287Z,94.09
2022-11-16T20:58:35.746Z,94.31
2022-11-16T21:01:09.492Z,94.15
2022-11-16T21:03:42.639Z,94.27
2022-11-16T21:06:15.099Z,94.29
2022-11-16T21:08:46.963Z,94.54
2022-11-16T21:11:21.470Z,94.78
2022-11-16T21:14:11.555Z,94.88
2022-11-16T21:16:44.046Z,94.78
2022-11-16T21:19:16.076Z,94.55
2022-11-16T21:21:47.823Z,94.30
2022-11-16T21:24:19.591Z,94.36
2022-11-16T21:26:53.623Z,94.16
2022-11-16T21:29:27.253Z,94.24
2022-11-16T21:31:59.491Z,94.17
2022-11-16T21:34:34.623Z,94.28
2022-11-16T21:37:09.099Z,94.49
2022-11-16T21:39:40.857Z,94.43
2022-11-16T21:42:13.039Z,94.29
2022-11-16T21:44:44.757Z,94.06
2022-11-16T21:47:19.311Z,94.24
2022-11-16T21:50:24.877Z,94.18
2022-11-16T21:52:45.342Z,94.12
2022-11-16T21:55:17.086Z,94.03
2022-11-16T21:57:50.680Z,93.85
2022-11-16T22:00:23.042Z,93.85
2022-11-16T22:02:55.142Z,94.01
2022-11-16T22:05:46.885Z,94.06
2022-11-16T22:08:18.659Z,93.90
2022-11-16T22:10:53.449Z,93.92
2022-11-16T22:13:25.608Z,93.95
2022-11-16T22:15:57.552Z,94.17
2022-11-16T22:18:29.760Z,94.16
2022-11-16T22:21:02.349Z,94.28
2022-11-16T22:23:34.676Z,94.18
2022-11-16T22:26:08.414Z,94.38
2022-11-16T22:28:40.545Z,94.41
2022-11-16T22:31:14.182Z,94.52
2022-11-16T22:33:46.112Z,94.61
2022-11-16T22:36:17.983Z,94.28
2022-11-16T22:38:49.958Z,94.15
2022-11-16T22:41:21.813Z,94.24
2022-11-16T22:43:53.669Z,94.31
2022-11-16T22:46:25.539Z,94.27
2022-11-16T22:48:57.443Z,94.47
2022-11-16T22:51:30.784Z,94.39
2022-11-16T22:54:04.235Z,94.32
2022-11-16T22:56:36.236Z,94.25
2022-11-16T22:59:09.075Z,94.18
2022-11-16T23:01:41.058Z,94.28
2022-11-16T23:04:12.886Z,94.21
2022-11-16T23:06:44.718Z,94.26
2022-11-16T23:09:16.641Z,94.08
2022-11-16T23:12:20.245Z,94.35
2022-11-16T23:15:09.506Z,94.39
2022-11-16T23:17:41.338Z,94.24
2022-11-16T23:20:31.468Z,94.36
2022-11-16T23:23:20.616Z,94.33
2022-11-16T23:26:09.932Z,94.40
2022-11-16T23:28:41.969Z,94.49
2022-11-16T23:31:13.788Z,94.38
2022-11-16T23:33:45.588Z,94.23
2022-11-16T23:36:17.512Z,94.16
2022-11-16T23:38:49.324Z,93.93
2022-11-16T23:41:38.436Z,93.79
2022-11-16T23:44:10.223Z,94.05
2022-11-16T23:46:42.004Z,94.15
2022-11-16T23:49:13.859Z,94.12
2022-11-16T23:51:47.730Z,94.09
2022-11-16T23:54:19.616Z,94.07
2022-11-16T23:56:51.439Z,94.38
2022-11-16T23:59:23.413Z,94.15
